Tyler, TX (75703)

10:46 PM CDT en Septiembre 18, 2014 (GMT -0500)
KTXTYLER21 | Change Station
CLOSE
Current Station
Estación meteorológica personal
Location: Tyler, TX
Altura: 499 ft
Estaciones meteorológicas cercanas

Alt 499 ft 32.29 °N, 95.31 °W | Updated 42 seconds ago

Parcialmente nublado
Parcialmente nublado
72.5 ° F
Sensación térmica 76 ° F
N
-
Viento Variable Viento desde Norte

Hoy
Alta -- | Baja -- ° F
--% Posibilidad de precipitaciones
Ayer
Alta -- | Baja -- ° F
Precip. -- pul
7:06 AM 7:23 PM
Creciente menguante, 22% visible
Presión 29.92 pul
Visibilidad 10.0 Millas
Nubes Despejado
Índice de calor 76 ° F
Punto de rocío 60 ° F
Humedad 65%
Precipitaciones -999.00 pul
Espesor de la nieve No disponible.
UV 0 de una escala de 12
Polen 9.50 de una escala de 12
Ozono Buena
PM2.5 Buena
Flu Activity No disponible.
METAR KTYR 190253Z 14004KT 10SM CLR 23/19 A2994 RMK AO2 SLP130 T02280194 53019

More Conditions Fewer Conditions

Presión 29.92 pul
Visibilidad 10.0 Millas
Nubes Despejado
Índice de calor 76 ° F
Punto de rocío 60 ° F
Humedad 65%
Precipitaciones -999.00 pul
Espesor de la nieve No disponible.
UV 0 de una escala de 12
Polen 9.50 de una escala de 12
Ozono Buena
PM2.5 Buena
Flu Activity No disponible.
METAR KTYR 190253Z 14004KT 10SM CLR 23/19 A2994 RMK AO2 SLP130 T02280194 53019

More Conditions Fewer Conditions

10-Day Weather Forecast

Almanac

Astronomía

Sep. 18, 2014 Salida Puesta
Hora real 7:06 AM CDT 7:23 PM CDT
Crepúsculo civil 6:42 AM CDT 7:47 PM CDT
Crepúsculo náutico 6:13 AM CDT 8:16 PM CDT
Crepúsculo astronómico 5:44 AM CDT 8:45 PM CDT
Luna 2:13 AM CDT (9/18) 4:02 PM CDT (9/18)
Horas de luz 13h 05m
Horas de luz
12h 16m
Tomorrow will be 1m 58s shorter.
Creciente menguante, 22% of the Moon is Illuminated
Hoy
Creciente menguante
Sep 24
Nueva
Oct 1
Cuarto creciente
Oct 8
Luna llena
Oct 15
Cuarto menguante

Extremos de hoy

Máximos del estado Bajos del estado

Community

WunderPhotos

Upload Photos

1,754,553 ¡fotos cargadas!

Nearby

Calidad del aire

  Calidad del aire Índice AQ Contaminante
Ayer Buena
PM2.5
Ayer Buena
OZONE
Real Buena
PM2.5
Real Buena
OZONE
Jueves Buena
OZONE
Jueves Buena
PM10
Viernes Buena
OZONE
Viernes Buena
PM10
Sábado Buena
OZONE
Sábado Buena
PM10
Domingo Moderada
OZONE
Domingo Buena
PM10

Grosos de nieve

Estación Profundido Altura
No tenemos constancia de nieve nueva.

Actividad de terremotos

Ciudad Distance Mag. Tiempo y dato
No hay informes recientes de la actividad sísmica.
Magnitud mínima muestra es 2,5.

Temperaturas de aguas costeras

Lugar Temperatura
Sin partes meteorológicos de las estaciones

Estaciones meteorológicas cercanas